Time;durP1;ratioP1;P1;durP2;ratioP2;P2;SDS_P1;SDS_P2;PMS_P1;PMS_P2;Temp;Humidity;BMP_temperature;BMP_pressure;BME280_temperature;BME280_humidity;BME280_pressure;Samples;Min_cycle;Max_cycle;Signal;HPM_P1;HPM_P2
2021/04/07 00:01:23;;;;;;;4.20;3.77;;;2.70;84.30;;;;;;6229627;28;20128;-78
2021/04/07 00:04:24;;;;;;;5.33;3.63;;;2.70;84.10;;;;;;6230239;28;20108;-79
2021/04/07 00:07:25;;;;;;;11.90;4.83;;;2.70;83.90;;;;;;6230045;28;20475;-78
2021/04/07 00:10:30;;;;;;;4.73;2.90;;;2.60;83.60;;;;;;6231126;28;20061;-79
2021/04/07 00:13:31;;;;;;;4.20;3.87;;;2.60;83.90;;;;;;6230682;28;20535;-79
2021/04/07 00:16:33;;;;;;;6.10;3.80;;;2.60;84.00;;;;;;6268461;28;20045;-77
2021/04/07 00:19:35;;;;;;;10.90;4.10;;;2.50;83.30;;;;;;6279610;28;20052;-78
2021/04/07 00:22:36;;;;;;;8.63;3.83;;;2.50;83.70;;;;;;6261932;28;20091;-79
2021/04/07 00:25:38;;;;;;;9.13;5.03;;;2.50;83.80;;;;;;6255204;28;20052;-79
2021/04/07 00:28:39;;;;;;;4.20;3.73;;;2.50;84.50;;;;;;6254865;28;20076;-80
2021/04/07 00:31:41;;;;;;;5.87;4.93;;;2.40;84.30;;;;;;6254888;28;20049;-79
2021/04/07 00:34:42;;;;;;;5.20;4.30;;;2.40;84.70;;;;;;6255469;28;20093;-78
2021/04/07 00:37:44;;;;;;;7.47;4.40;;;2.40;84.90;;;;;;6254443;28;20129;-79
2021/04/07 00:40:45;;;;;;;10.63;4.43;;;2.40;85.00;;;;;;6254780;28;20069;-81
2021/04/07 00:43:46;;;;;;;6.43;4.53;;;2.40;86.10;;;;;;6254827;28;20042;-79
2021/04/07 00:46:49;;;;;;;5.90;5.20;;;2.40;86.00;;;;;;6255151;28;20056;-79
2021/04/07 00:49:50;;;;;;;4.27;3.83;;;2.40;86.00;;;;;;6255043;28;20523;-79
2021/04/07 00:52:52;;;;;;;7.53;4.87;;;2.40;85.90;;;;;;6255207;28;20084;-81
2021/04/07 00:55:54;;;;;;;4.37;3.83;;;2.30;86.10;;;;;;6255860;28;20531;-81
2021/04/07 00:58:55;;;;;;;6.10;4.87;;;2.30;86.20;;;;;;6256741;28;20063;-81
2021/04/07 01:01:57;;;;;;;5.37;4.83;;;2.20;86.70;;;;;;6255465;28;20068;-81
2021/04/07 01:05:00;;;;;;;7.90;4.90;;;2.20;87.20;;;;;;6255796;28;20538;-81
2021/04/07 01:08:02;;;;;;;6.80;5.77;;;2.20;87.80;;;;;;6254854;28;20133;-81
2021/04/07 01:11:03;;;;;;;11.00;5.30;;;2.20;87.90;;;;;;6255955;28;20113;-81
2021/04/07 01:14:05;;;;;;;6.10;5.10;;;2.20;88.00;;;;;;6255589;28;20091;-81
2021/04/07 01:17:08;;;;;;;7.73;5.47;;;2.20;88.20;;;;;;6255155;28;20491;-79
2021/04/07 01:20:12;;;;;;;6.07;4.97;;;2.00;88.20;;;;;;6254424;28;20526;-79
2021/04/07 01:23:14;;;;;;;5.40;4.83;;;2.00;88.90;;;;;;6275989;22;20243;-76
2021/04/07 01:26:16;;;;;;;5.97;4.97;;;1.90;89.20;;;;;;6249478;28;20180;-75
2021/04/07 01:29:18;;;;;;;10.30;6.80;;;1.90;89.10;;;;;;6249074;28;20045;-76
2021/04/07 01:32:20;;;;;;;5.30;4.80;;;1.90;89.70;;;;;;6248973;28;20126;-77
2021/04/07 01:35:23;;;;;;;7.40;5.60;;;1.90;89.60;;;;;;6248786;28;20053;-76
2021/04/07 01:38:24;;;;;;;5.43;4.97;;;1.90;89.90;;;;;;6248745;28;20549;-76
2021/04/07 01:41:27;;;;;;;8.93;5.60;;;1.90;90.00;;;;;;6240300;28;20175;-76
2021/04/07 01:44:29;;;;;;;6.83;4.97;;;1.90;89.70;;;;;;6249065;28;20418;-76
2021/04/07 01:47:30;;;;;;;6.37;4.63;;;1.90;90.00;;;;;;6248690;28;20072;-75
2021/04/07 01:50:32;;;;;;;5.23;4.67;;;1.90;90.00;;;;;;6248967;28;20140;-77
2021/04/07 01:53:34;;;;;;;10.03;5.90;;;1.90;89.90;;;;;;6248820;28;20490;-76
2021/04/07 01:56:46;;;;;;;6.40;4.13;;;1.90;90.10;;;;;;6248249;28;20148;-75
2021/04/07 01:59:48;;;;;;;7.63;5.77;;;1.90;90.10;;;;;;6247871;28;20037;-76
2021/04/07 02:02:49;;;;;;;5.67;5.00;;;2.00;90.10;;;;;;6248737;28;20092;-76
2021/04/07 02:05:51;;;;;;;8.43;4.20;;;2.00;90.10;;;;;;6248238;28;20065;-76
2021/04/07 02:08:52;;;;;;;4.63;4.20;;;2.00;90.00;;;;;;6248084;28;20126;-76
2021/04/07 02:11:54;;;;;;;4.87;4.47;;;2.00;90.30;;;;;;6247738;28;20065;-76
2021/04/07 02:14:56;;;;;;;6.93;5.93;;;2.00;89.90;;;;;;6247479;28;20053;-77
2021/04/07 02:17:57;;;;;;;7.87;4.43;;;2.00;90.20;;;;;;6247865;28;20062;-76
2021/04/07 02:20:59;;;;;;;6.53;4.13;;;2.00;90.30;;;;;;6247670;28;20053;-77
2021/04/07 02:24:00;;;;;;;6.13;5.00;;;2.00;90.20;;;;;;6247653;28;20128;-76
2021/04/07 02:27:09;;;;;;;5.67;3.97;;;2.00;90.20;;;;;;6247982;28;20140;-76
2021/04/07 02:30:11;;;;;;;;;;;2.00;90.30;;;;;;6248189;28;20132;-76
2021/04/07 02:33:12;;;;;;;5.40;4.80;;;2.00;91.00;;;;;;6247396;28;20481;-76
2021/04/07 02:36:13;;;;;;;5.70;4.93;;;1.90;90.30;;;;;;6247538;28;20049;-76
2021/04/07 02:39:15;;;;;;;7.53;5.63;;;1.90;90.40;;;;;;6247453;28;20073;-76
2021/04/07 02:42:19;;;;;;;6.80;4.90;;;1.90;90.50;;;;;;6248229;28;20084;-76
2021/04/07 02:45:21;;;;;;;6.33;5.73;;;1.90;90.50;;;;;;6247598;28;20072;-76
2021/04/07 02:48:22;;;;;;;5.70;4.53;;;1.90;90.60;;;;;;6247594;28;20523;-76
2021/04/07 02:51:23;;;;;;;8.57;5.30;;;1.90;90.60;;;;;;6247391;28;20132;-77
2021/04/07 02:54:25;;;;;;;5.90;4.10;;;2.00;90.80;;;;;;6249189;28;20056;-77
2021/04/07 02:57:27;;;;;;;5.13;4.50;;;1.90;90.70;;;;;;6248336;28;20134;-76
2021/04/07 03:00:28;;;;;;;5.33;4.77;;;1.90;90.50;;;;;;6246970;28;20076;-76
2021/04/07 03:03:29;;;;;;;7.27;3.87;;;2.00;90.30;;;;;;6247123;28;20554;-76
2021/04/07 03:06:31;;;;;;;6.63;4.67;;;1.90;90.30;;;;;;6247266;28;20081;-76
2021/04/07 03:09:32;;;;;;;5.73;4.70;;;1.90;90.20;;;;;;6246792;28;20077;-77
2021/04/07 03:12:34;;;;;;;8.03;6.03;;;1.90;90.30;;;;;;6246707;28;20525;-75
2021/04/07 03:15:36;;;;;;;6.80;3.90;;;2.00;90.30;;;;;;6246852;28;20133;-76
2021/04/07 03:18:37;;;;;;;7.90;5.17;;;2.00;90.20;;;;;;6247030;28;20049;-75
2021/04/07 03:21:39;;;;;;;5.77;4.43;;;1.90;90.10;;;;;;6246227;28;20144;-76
2021/04/07 03:24:40;;;;;;;5.57;4.40;;;2.00;90.30;;;;;;6246344;28;20056;-76
2021/04/07 03:27:42;;;;;;;5.13;4.40;;;1.90;90.30;;;;;;6246121;28;20037;-75
2021/04/07 03:30:50;;;;;;;5.27;4.47;;;2.00;90.40;;;;;;6246319;28;20146;-75
2021/04/07 03:33:51;;;;;;;5.57;3.83;;;2.00;90.10;;;;;;6246127;28;20041;-76
2021/04/07 03:36:53;;;;;;;12.30;5.23;;;1.90;90.20;;;;;;6246446;28;20107;-77
2021/04/07 03:39:54;;;;;;;5.13;4.67;;;1.90;90.10;;;;;;6245844;28;20124;-76
2021/04/07 03:42:56;;;;;;;5.03;3.90;;;1.90;90.00;;;;;;6246737;28;20068;-76
2021/04/07 03:45:59;;;;;;;6.30;4.97;;;1.90;89.80;;;;;;6245823;28;20487;-76
2021/04/07 03:49:00;;;;;;;8.53;5.33;;;1.90;89.90;;;;;;6246247;28;20140;-76
2021/04/07 03:52:01;;;;;;;6.10;5.50;;;1.90;89.80;;;;;;6245698;28;20069;-76
2021/04/07 03:55:03;;;;;;;9.63;4.60;;;1.90;89.50;;;;;;6246292;28;20053;-75
2021/04/07 03:58:06;;;;;;;6.97;4.90;;;1.80;89.30;;;;;;6246124;28;20107;-75
2021/04/07 04:01:07;;;;;;;4.73;4.33;;;1.80;89.50;;;;;;6245535;28;20052;-75
2021/04/07 04:04:10;;;;;;;10.90;4.70;;;1.80;89.60;;;;;;6245772;28;20599;-76
2021/04/07 04:07:11;;;;;;;4.97;4.47;;;1.70;89.50;;;;;;6245773;28;20056;-75
2021/04/07 04:10:13;;;;;;;7.53;4.93;;;1.70;90.10;;;;;;6246011;28;20064;-75
2021/04/07 04:13:16;;;;;;;8.07;4.87;;;1.60;90.00;;;;;;6245452;28;20041;-76
2021/04/07 04:16:17;;;;;;;5.40;4.87;;;1.50;90.40;;;;;;6245830;28;20128;-76
2021/04/07 04:19:18;;;;;;;8.13;5.63;;;1.40;90.70;;;;;;6245498;28;20050;-75
2021/04/07 04:22:20;;;;;;;8.13;4.87;;;1.40;90.80;;;;;;6246194;28;20050;-76
2021/04/07 04:25:23;;;;;;;10.53;5.03;;;1.40;90.70;;;;;;6245863;28;20096;-76
2021/04/07 04:28:25;;;;;;;8.53;4.67;;;1.40;90.70;;;;;;6245578;28;20128;-76
2021/04/07 04:31:27;;;;;;;8.67;4.70;;;1.40;90.60;;;;;;6245471;28;20053;-76
2021/04/07 04:34:28;;;;;;;9.13;5.73;;;1.40;90.50;;;;;;6245727;28;20053;-76
2021/04/07 04:37:29;;;;;;;6.43;5.07;;;1.40;90.50;;;;;;6246236;28;20196;-76
2021/04/07 04:40:31;;;;;;;7.13;4.77;;;1.40;90.40;;;;;;6249800;28;20069;-76
2021/04/07 04:43:33;;;;;;;6.20;4.90;;;1.40;90.50;;;;;;6250066;28;20052;-76
2021/04/07 04:46:35;;;;;;;6.93;6.33;;;1.40;90.20;;;;;;6250383;28;20081;-76
2021/04/07 04:49:36;;;;;;;6.27;5.30;;;1.30;90.20;;;;;;6249580;28;20077;-76
2021/04/07 04:52:37;;;;;;;7.13;4.93;;;1.30;90.10;;;;;;6249735;28;20065;-76
2021/04/07 04:55:39;;;;;;;8.67;5.50;;;1.20;90.10;;;;;;6249900;28;20079;-76
2021/04/07 04:58:41;;;;;;;9.57;5.43;;;1.20;90.20;;;;;;6250233;28;20136;-76
2021/04/07 05:01:42;;;;;;;8.97;5.73;;;1.20;89.90;;;;;;6249091;28;20324;-76
2021/04/07 05:04:43;;;;;;;8.23;4.53;;;1.20;90.20;;;;;;6249228;28;20063;-76
2021/04/07 05:07:45;;;;;;;7.27;5.40;;;1.10;90.20;;;;;;6249373;28;20073;-76
2021/04/07 05:10:48;;;;;;;8.33;4.77;;;1.10;90.30;;;;;;6250007;28;20080;-76
2021/04/07 05:13:50;;;;;;;6.60;5.27;;;1.10;90.40;;;;;;6249069;28;20049;-76
2021/04/07 05:16:51;;;;;;;5.53;4.20;;;1.10;90.20;;;;;;6249272;28;20076;-76
2021/04/07 05:19:53;;;;;;;9.10;4.47;;;1.10;90.20;;;;;;6248991;28;20129;-76
2021/04/07 05:22:54;;;;;;;8.17;4.63;;;1.10;90.20;;;;;;6249331;28;20076;-75
2021/04/07 05:25:55;;;;;;;6.97;5.07;;;1.00;90.20;;;;;;6248761;28;20049;-76
2021/04/07 05:28:57;;;;;;;5.23;4.57;;;1.00;90.10;;;;;;6248884;28;20513;-76
2021/04/07 05:31:59;;;;;;;5.97;4.87;;;0.90;90.20;;;;;;6248830;28;20061;-76
2021/04/07 05:35:01;;;;;;;5.77;5.20;;;1.00;90.10;;;;;;6249096;28;20049;-76
2021/04/07 05:38:02;;;;;;;5.00;4.20;;;1.00;90.00;;;;;;6248720;28;20069;-76
2021/04/07 05:41:04;;;;;;;9.90;5.37;;;1.20;89.10;;;;;;6248185;28;20045;-75
2021/04/07 05:44:06;;;;;;;5.07;4.63;;;1.20;88.70;;;;;;6248513;28;20057;-75
2021/04/07 05:47:08;;;;;;;5.27;4.07;;;1.30;88.20;;;;;;6248873;28;20463;-76
2021/04/07 05:50:09;;;;;;;6.60;4.10;;;1.20;87.70;;;;;;6248632;28;20046;-75
2021/04/07 05:53:11;;;;;;;6.00;5.13;;;1.20;87.80;;;;;;6247998;28;20124;-75
2021/04/07 05:56:13;;;;;;;4.73;4.33;;;1.20;87.50;;;;;;6248410;28;20166;-76
2021/04/07 05:59:15;;;;;;;7.73;4.27;;;1.30;87.20;;;;;;6248009;28;20529;-75
2021/04/07 06:02:16;;;;;;;8.23;6.30;;;1.50;85.80;;;;;;6248049;28;20088;-76
2021/04/07 06:05:18;;;;;;;5.50;3.70;;;1.80;85.10;;;;;;6241645;28;20173;-75
2021/04/07 06:08:20;;;;;;;4.77;3.83;;;1.90;84.10;;;;;;6230974;28;20048;-76
2021/04/07 06:11:21;;;;;;;4.60;3.60;;;2.00;83.30;;;;;;6222848;28;20054;-75
2021/04/07 06:14:23;;;;;;;6.13;3.47;;;2.10;82.80;;;;;;6223573;28;20099;-76
2021/04/07 06:17:25;;;;;;;10.33;6.20;;;2.10;82.60;;;;;;6233457;28;20128;-76
2021/04/07 06:20:27;;;;;;;5.83;3.70;;;2.40;82.10;;;;;;6235030;28;20074;-76
2021/04/07 06:23:29;;;;;;;9.50;3.80;;;2.60;81.00;;;;;;6225430;28;20482;-76
2021/04/07 06:26:30;;;;;;;4.87;3.27;;;2.80;80.20;;;;;;6247828;28;20049;-76
2021/04/07 06:29:32;;;;;;;7.37;4.20;;;2.80;79.70;;;;;;6247377;28;20124;-77
2021/04/07 06:32:34;;;;;;;7.43;4.30;;;2.80;79.70;;;;;;6240226;28;20181;-76
2021/04/07 06:35:35;;;;;;;12.80;3.77;;;3.00;79.00;;;;;;6222905;28;20042;-76
2021/04/07 06:38:38;;;;;;;7.40;4.37;;;3.10;78.00;;;;;;6223203;28;20053;-76
2021/04/07 06:41:39;;;;;;;12.53;4.27;;;3.20;77.20;;;;;;6222358;28;20056;-76
2021/04/07 06:44:42;;;;;;;6.27;4.30;;;3.50;80.60;;;;;;6222443;28;20072;-76
2021/04/07 06:47:43;;;;;;;6.13;3.47;;;3.40;76.00;;;;;;6222421;28;20107;-76
2021/04/07 06:50:47;;;;;;;4.80;3.40;;;3.50;76.00;;;;;;6238879;28;20132;-76
2021/04/07 06:53:50;;;;;;;4.70;3.60;;;3.60;75.10;;;;;;6246658;28;20454;-76
2021/04/07 06:56:51;;;;;;;4.43;3.00;;;3.70;74.70;;;;;;6246871;28;20049;-76
2021/04/07 06:59:54;;;;;;;4.30;3.83;;;3.80;73.20;;;;;;6246033;28;20098;-76
2021/04/07 07:03:00;;;;;;;8.00;3.58;;;3.80;72.80;;;;;;6246190;28;20200;-76
2021/04/07 07:06:01;;;;;;;5.68;3.10;;;3.90;72.00;;;;;;6246344;28;20056;-76
2021/04/07 07:09:13;;;;;;;4.57;3.60;;;4.10;70.20;;;;;;6246532;28;20233;-75
2021/04/07 07:12:16;;;;;;;4.00;3.60;;;4.20;70.10;;;;;;6246166;28;20125;-76
2021/04/07 07:15:18;;;;;;;5.53;3.57;;;4.00;69.90;;;;;;6246127;28;20140;-76
2021/04/07 07:18:20;;;;;;;5.00;3.28;;;4.00;69.70;;;;;;6246605;28;20133;-76
2021/04/07 07:21:22;;;;;;;4.57;3.55;;;4.10;69.00;;;;;;6246122;28;20064;-76
2021/04/07 07:24:32;;;;;;;3.53;3.23;;;4.10;69.10;;;;;;6272970;23;20050;-76
2021/04/07 07:27:39;;;;;;;4.10;3.70;;;4.10;68.80;;;;;;6222917;28;20129;-77
2021/04/07 07:30:46;;;;;;;5.67;2.97;;;4.00;68.30;;;;;;6222752;28;20056;-79
2021/04/07 07:33:48;;;;;;;4.65;3.50;;;3.90;68.90;;;;;;6222558;28;20049;-77
2021/04/07 07:36:49;;;;;;;7.73;2.90;;;3.80;68.90;;;;;;6221884;28;20595;-77
2021/04/07 07:39:51;;;;;;;3.80;2.90;;;4.00;69.00;;;;;;6222905;28;20069;-77
2021/04/07 07:42:53;;;;;;;3.90;3.15;;;4.30;68.40;;;;;;6223001;28;20050;-77
2021/04/07 07:45:55;;;;;;;3.60;2.95;;;4.40;66.90;;;;;;6222168;28;20050;-77
2021/04/07 07:48:58;;;;;;;7.70;5.00;;;4.40;65.90;;;;;;6221981;28;20549;-77
2021/04/07 07:51:59;;;;;;;5.40;3.20;;;4.20;66.40;;;;;;6221691;28;20099;-76
2021/04/07 07:55:13;;;;;;;4.18;3.80;;;4.10;65.90;;;;;;6222323;28;20124;-76
2021/04/07 07:58:14;;;;;;;4.13;3.78;;;4.10;66.80;;;;;;6222406;28;20133;-76
2021/04/07 08:01:18;;;;;;;6.25;4.25;;;4.10;66.50;;;;;;6221626;28;20109;-77
2021/04/07 08:04:20;;;;;;;4.78;3.92;;;4.00;66.20;;;;;;6221655;28;20046;-77
2021/04/07 08:07:23;;;;;;;5.30;3.40;;;3.90;66.70;;;;;;6221524;28;20487;-77
2021/04/07 08:10:24;;;;;;;9.13;4.60;;;3.90;67.10;;;;;;6221806;28;20123;-76
2021/04/07 08:13:32;;;;;;;4.63;4.20;;;3.90;67.90;;;;;;6223595;28;20506;-77
2021/04/07 08:16:37;;;;;;;7.10;3.97;;;4.20;66.20;;;;;;6226222;28;20068;-77
2021/04/07 08:19:38;;;;;;;5.47;4.18;;;4.20;66.60;;;;;;6228297;28;20053;-77
2021/04/07 08:22:41;;;;;;;6.30;4.07;;;4.20;66.50;;;;;;6226195;28;20602;-77
2021/04/07 08:25:43;;;;;;;6.77;4.60;;;4.20;66.90;;;;;;6225712;28;20060;-76
2021/04/07 08:28:45;;;;;;;6.18;4.43;;;4.40;66.90;;;;;;6225953;28;20124;-76
2021/04/07 08:31:49;;;;;;;8.50;4.50;;;4.60;65.80;;;;;;6226089;28;20099;-77
2021/04/07 08:34:52;;;;;;;4.40;3.67;;;;;;;;;;6226162;28;20133;-77
2021/04/07 08:37:58;;;;;;;8.70;5.47;;;4.60;64.10;;;;;;6226307;28;20137;-78
2021/04/07 08:41:10;;;;;;;8.18;4.97;;;4.70;64.40;;;;;;6226285;28;20132;-77
2021/04/07 08:44:12;;;;;;;4.75;3.55;;;4.90;63.60;;;;;;6225511;28;20392;-77
2021/04/07 08:47:29;;;;;;;11.40;5.15;;;4.90;63.90;;;;;;6226015;28;20049;-76
2021/04/07 08:50:30;;;;;;;7.32;3.63;;;4.90;64.40;;;;;;6226283;28;20184;-77
2021/04/07 08:53:33;;;;;;;9.20;3.92;;;4.80;63.90;;;;;;6225839;28;20037;-76
2021/04/07 08:56:37;;;;;;;5.13;4.05;;;4.60;64.40;;;;;;6225938;28;20056;-77
2021/04/07 08:59:46;;;;;;;11.70;4.93;;;4.50;64.40;;;;;;6226054;28;20122;-76
2021/04/07 09:02:50;;;;;;;6.90;3.58;;;4.50;64.90;;;;;;6223557;28;20073;-77
2021/04/07 09:05:52;;;;;;;8.02;3.95;;;4.60;65.30;;;;;;6223910;28;20050;-76
2021/04/07 09:08:54;;;;;;;6.90;4.10;;;4.70;64.70;;;;;;6238668;28;20125;-77
2021/04/07 09:11:57;;;;;;;5.90;3.22;;;4.70;64.00;;;;;;6240723;28;20072;-76
2021/04/07 09:14:58;;;;;;;7.63;3.53;;;4.60;62.10;;;;;;6240875;28;20475;-76
2021/04/07 09:18:00;;;;;;;4.88;3.65;;;4.30;62.70;;;;;;6240091;28;20049;-76
2021/04/07 09:21:03;;;;;;;7.05;2.90;;;4.20;63.20;;;;;;6248502;28;20103;-76
2021/04/07 09:24:15;;;;;;;14.57;4.13;;;4.10;63.60;;;;;;6230897;28;20164;-77
2021/04/07 09:27:21;;;;;;;6.47;4.35;;;4.20;63.90;;;;;;6232059;28;20419;-76
2021/04/07 09:30:23;;;;;;;8.93;3.75;;;4.30;63.80;;;;;;6226102;28;20069;-77
2021/04/07 09:33:25;;;;;;;4.05;3.67;;;4.40;63.70;;;;;;6239922;28;20038;-76
2021/04/07 09:36:28;;;;;;;5.25;3.63;;;4.40;63.00;;;;;;6237015;28;20147;-76
2021/04/07 09:39:30;;;;;;;8.00;4.03;;;4.40;63.00;;;;;;6232994;28;20049;-76
2021/04/07 09:42:31;;;;;;;6.80;3.28;;;4.40;63.20;;;;;;6232098;28;20140;-76
2021/04/07 09:45:32;;;;;;;4.15;3.55;;;4.50;62.70;;;;;;6223185;28;20050;-76
2021/04/07 09:48:46;;;;;;;4.43;3.03;;;4.60;62.40;;;;;;6226464;28;20482;-76
2021/04/07 09:51:49;;;;;;;11.77;5.22;;;4.70;62.40;;;;;;6224231;28;20124;-76
2021/04/07 09:54:51;;;;;;;7.05;3.40;;;4.70;61.70;;;;;;6225350;28;20052;-76
2021/04/07 09:57:57;;;;;;;8.38;3.67;;;4.70;61.90;;;;;;6232334;28;20056;-76
2021/04/07 10:01:00;;;;;;;4.10;2.95;;;4.90;63.30;;;;;;6236625;28;20077;-76
2021/04/07 10:04:02;;;;;;;4.57;3.00;;;5.10;61.80;;;;;;6236608;28;20641;-76
2021/04/07 10:07:11;;;;;;;8.00;4.05;;;5.30;60.30;;;;;;6233162;28;20129;-76
2021/04/07 10:10:14;;;;;;;7.05;3.30;;;5.20;60.30;;;;;;6243835;28;20124;-76
2021/04/07 10:13:16;;;;;;;6.88;4.35;;;5.30;61.00;;;;;;6239348;28;20049;-76
2021/04/07 10:16:18;;;;;;;4.20;3.45;;;5.40;61.40;;;;;;6241513;28;20042;-76
2021/04/07 10:19:27;;;;;;;9.48;3.08;;;5.50;59.90;;;;;;6236595;28;20176;-76
2021/04/07 10:22:30;;;;;;;7.57;3.50;;;5.50;60.20;;;;;;6241077;28;20061;-76
2021/04/07 10:25:32;;;;;;;7.07;3.55;;;5.80;62.40;;;;;;6229294;28;20041;-76
2021/04/07 10:28:34;;;;;;;8.75;3.60;;;6.40;68.80;;;;;;6223408;28;20507;-76
2021/04/07 10:31:35;;;;;;;6.05;3.08;;;6.50;58.60;;;;;;6238763;28;20041;-77
2021/04/07 10:34:37;;;;;;;5.03;2.60;;;6.60;56.80;;;;;;6247101;28;20141;-76
2021/04/07 10:37:39;;;;;;;5.38;4.70;;;6.70;57.20;;;;;;6229711;28;20132;-77
2021/04/07 10:40:41;;;;;;;9.50;4.90;;;6.80;56.40;;;;;;6230390;28;20073;-76
2021/04/07 10:43:43;;;;;;;7.72;2.15;;;6.90;55.90;;;;;;6231406;28;20045;-77
2021/04/07 10:46:44;;;;;;;9.60;3.38;;;6.80;55.80;;;;;;6239274;28;20560;-78
2021/04/07 10:49:54;;;;;;;8.32;2.78;;;6.90;55.80;;;;;;6249731;28;20124;-76
2021/04/07 10:52:56;;;;;;;3.17;2.05;;;7.00;55.60;;;;;;6236535;28;20073;-76
2021/04/07 10:55:59;;;;;;;5.18;3.53;;;7.00;54.60;;;;;;6241231;28;20483;-76
2021/04/07 10:59:03;;;;;;;14.43;4.13;;;7.10;54.60;;;;;;6247955;28;20056;-78
2021/04/07 11:02:14;;;;;;;7.20;3.40;;;7.00;53.70;;;;;;6246170;28;20077;-76
2021/04/07 11:05:19;;;;;;;6.70;2.35;;;6.90;53.90;;;;;;6228746;28;20540;-76
2021/04/07 11:08:20;;;;;;;5.05;3.28;;;6.70;54.50;;;;;;6237049;28;20854;-76
2021/04/07 11:11:23;;;;;;;2.47;2.28;;;6.60;54.80;;;;;;6237896;28;20080;-76
2021/04/07 11:14:25;;;;;;;5.10;2.20;;;6.50;54.50;;;;;;6224442;28;20048;-76
2021/04/07 11:17:26;;;;;;;7.45;2.50;;;6.50;54.00;;;;;;6230604;28;20074;-77
2021/04/07 11:20:29;;;;;;;4.45;3.05;;;6.30;53.70;;;;;;6227544;28;20164;-76
2021/04/07 11:23:30;;;;;;;3.58;2.67;;;6.20;54.60;;;;;;6229855;28;20095;-76
2021/04/07 11:26:32;;;;;;;9.38;3.13;;;6.20;54.90;;;;;;6239297;28;20046;-76
2021/04/07 11:29:35;;;;;;;6.10;3.47;;;6.20;54.70;;;;;;6228629;28;20045;-77
2021/04/07 11:32:40;;;;;;;6.75;3.90;;;6.10;55.40;;;;;;6221727;28;20081;-76
2021/04/07 11:35:47;;;;;;;6.03;2.72;;;6.00;56.60;;;;;;6213627;28;20041;-76
2021/04/07 11:38:52;;;;;;;7.68;2.67;;;;;;;;;;6227363;28;20054;-77
2021/04/07 11:42:07;;;;;;;4.93;2.72;;;5.80;55.50;;;;;;6247692;28;20045;-79
2021/04/07 11:45:10;;;;;;;9.65;2.92;;;5.70;57.00;;;;;;6241392;28;20069;-77
2021/04/07 11:48:11;;;;;;;2.00;1.67;;;5.70;57.60;;;;;;6240259;28;20129;-76
2021/04/07 11:51:13;;;;;;;29.33;24.23;;;5.70;57.30;;;;;;6249100;28;20615;-76
2021/04/07 11:54:15;;;;;;;6.10;4.00;;;5.70;57.40;;;;;;6237594;28;20538;-77
2021/04/07 11:57:16;;;;;;;10.25;8.73;;;5.60;58.10;;;;;;6246582;28;20137;-76
2021/04/07 12:00:19;;;;;;;14.23;12.57;;;5.40;59.60;;;;;;6237292;28;20069;-76
2021/04/07 12:03:20;;;;;;;8.30;7.40;;;5.20;60.50;;;;;;6243029;28;20128;-76
2021/04/07 12:06:22;;;;;;;20.30;16.38;;;5.20;60.80;;;;;;6240620;28;20143;-76
2021/04/07 12:09:24;;;;;;;19.45;14.13;;;5.10;61.40;;;;;;6228567;28;20052;-76
2021/04/07 12:12:25;;;;;;;10.15;5.80;;;4.90;63.80;;;;;;6240969;28;20056;-76
2021/04/07 12:15:27;;;;;;;8.57;5.28;;;4.70;66.70;;;;;;6243704;28;20046;-76
2021/04/07 12:18:28;;;;;;;24.58;17.50;;;4.50;68.70;;;;;;6231107;28;20518;-78
2021/04/07 12:21:31;;;;;;;11.45;7.82;;;4.40;69.80;;;;;;6239187;28;20135;-77
2021/04/07 12:24:32;;;;;;;6.38;5.82;;;4.40;70.30;;;;;;6245517;28;20065;-77
2021/04/07 12:27:33;;;;;;;10.32;8.75;;;4.50;70.60;;;;;;6245892;28;20045;-77
2021/04/07 12:30:47;;;;;;;11.88;4.82;;;4.60;70.70;;;;;;6240770;28;20132;-78
2021/04/07 12:33:51;;;;;;;9.10;4.55;;;4.80;69.40;;;;;;6231713;28;20053;-78
2021/04/07 12:36:53;;;;;;;6.55;4.78;;;4.90;68.80;;;;;;6246828;28;20128;-78
2021/04/07 12:39:54;;;;;;;8.90;5.97;;;4.90;68.10;;;;;;6247045;28;20586;-78
2021/04/07 12:42:56;;;;;;;4.65;4.25;;;5.00;68.50;;;;;;6231939;28;20084;-77
2021/04/07 12:45:57;;;;;;;9.00;4.07;;;5.00;68.80;;;;;;6236993;28;20085;-77
2021/04/07 12:48:58;;;;;;;4.55;3.63;;;5.10;68.30;;;;;;6231004;28;20140;-77
2021/04/07 12:52:01;;;;;;;9.63;3.47;;;5.10;67.60;;;;;;6242249;28;20050;-78
2021/04/07 12:55:02;;;;;;;5.05;3.25;;;5.10;67.20;;;;;;6240083;28;20052;-77
2021/04/07 12:58:04;;;;;;;4.32;3.95;;;5.00;67.30;;;;;;6233611;28;20073;-77
2021/04/07 13:01:05;;;;;;;6.07;3.10;;;4.90;67.50;;;;;;6244199;28;20103;-77
2021/04/07 13:04:07;;;;;;;10.48;3.33;;;4.80;68.00;;;;;;6251474;28;20139;-77
2021/04/07 13:07:09;;;;;;;5.22;2.78;;;4.80;66.90;;;;;;6237782;28;20041;-78
2021/04/07 13:10:12;;;;;;;3.35;3.08;;;4.80;66.40;;;;;;6237842;28;20121;-77
2021/04/07 13:13:13;;;;;;;5.75;3.15;;;4.80;65.90;;;;;;6237115;28;20041;-78
2021/04/07 13:16:15;;;;;;;4.40;3.50;;;4.90;65.90;;;;;;6241284;28;20129;-76
2021/04/07 13:19:16;;;;;;;8.32;2.85;;;4.80;65.70;;;;;;6246455;28;20056;-77
2021/04/07 13:22:19;;;;;;;12.23;3.78;;;4.70;66.20;;;;;;6227457;28;20077;-76
2021/04/07 13:25:20;;;;;;;4.28;2.60;;;4.70;66.80;;;;;;6237207;28;20856;-76
2021/04/07 13:28:21;;;;;;;3.08;2.60;;;4.60;66.50;;;;;;6233472;28;20067;-76
2021/04/07 13:31:23;;;;;;;7.43;6.22;;;4.50;65.90;;;;;;6223573;28;20401;-76
2021/04/07 13:34:29;;;;;;;5.97;5.18;;;4.40;65.60;;;;;;6224207;28;20099;-77
2021/04/07 13:37:40;;;;;;;9.80;4.97;;;4.20;66.00;;;;;;6238365;28;20065;-76
2021/04/07 13:40:55;;;;;;;5.05;2.97;;;4.20;67.00;;;;;;6248070;28;20049;-77
2021/04/07 13:43:56;;;;;;;5.40;3.77;;;4.00;69.70;;;;;;6248628;28;20557;-77
2021/04/07 13:46:58;;;;;;;5.32;3.50;;;3.80;71.60;;;;;;6232382;28;20155;-76
2021/04/07 13:49:59;;;;;;;4.60;3.25;;;3.70;72.80;;;;;;6247963;28;20099;-76
2021/04/07 13:53:01;;;;;;;7.87;4.43;;;3.60;74.20;;;;;;6247298;28;20073;-77
2021/04/07 13:56:07;;;;;;;4.63;3.30;;;3.50;75.60;;;;;;6247920;28;20052;-76
2021/04/07 13:59:08;;;;;;;8.63;5.40;;;3.40;76.60;;;;;;6239902;28;20133;-76
2021/04/07 14:02:09;;;;;;;4.87;3.93;;;3.40;77.40;;;;;;6231205;28;20077;-77
2021/04/07 14:05:11;;;;;;;5.50;3.20;;;3.40;78.50;;;;;;6230943;28;20128;-77
2021/04/07 14:08:18;;;;;;;5.67;3.77;;;3.30;79.80;;;;;;6238416;28;20056;-77
2021/04/07 14:11:20;;;;;;;8.67;4.27;;;3.20;81.10;;;;;;6217452;28;20508;-76
2021/04/07 14:14:21;;;;;;;10.77;5.00;;;3.10;83.40;;;;;;6238280;28;20081;-76
2021/04/07 14:17:23;;;;;;;6.50;4.33;;;2.90;84.90;;;;;;6231038;28;20519;-77
2021/04/07 14:20:24;;;;;;;4.93;4.37;;;2.60;87.90;;;;;;6224607;28;20074;-76
2021/04/07 14:23:30;;;;;;;13.87;5.53;;;2.40;90.40;;;;;;6225489;28;20049;-77
2021/04/07 14:26:33;;;;;;;6.57;4.70;;;2.30;91.80;;;;;;6222620;28;20053;-76
2021/04/07 14:29:35;;;;;;;8.70;5.23;;;2.30;92.90;;;;;;6222675;28;20042;-76
2021/04/07 14:32:36;;;;;;;8.63;4.73;;;2.20;93.80;;;;;;6230426;28;20050;-76
2021/04/07 14:35:37;;;;;;;8.80;6.17;;;2.20;94.70;;;;;;6238669;28;20521;-76
2021/04/07 14:38:40;;;;;;;7.73;5.53;;;2.10;95.70;;;;;;6239026;28;20137;-76
2021/04/07 14:41:42;;;;;;;8.03;5.33;;;2.10;96.40;;;;;;6214169;28;20074;-76
2021/04/07 14:44:43;;;;;;;7.47;5.33;;;2.10;97.10;;;;;;6230507;28;20076;-76
2021/04/07 14:47:47;;;;;;;18.50;6.17;;;2.10;97.70;;;;;;6246529;28;20049;-76
2021/04/07 14:50:50;;;;;;;6.97;4.90;;;2.20;98.30;;;;;;6246579;28;20049;-76
2021/04/07 14:54:00;;;;;;;14.93;8.53;;;2.20;99.10;;;;;;6236503;28;20057;-76
2021/04/07 14:57:01;;;;;;;16.23;12.13;;;2.20;99.10;;;;;;6222217;28;20050;-77
2021/04/07 15:00:03;;;;;;;12.93;9.53;;;2.20;99.40;;;;;;6238216;28;20167;-76
2021/04/07 15:03:05;;;;;;;10.93;7.00;;;2.20;99.80;;;;;;6226716;28;20059;-77
2021/04/07 15:06:06;;;;;;;14.50;10.70;;;2.20;99.90;;;;;;6230772;28;20255;-76
2021/04/07 15:09:08;;;;;;;20.80;7.37;;;2.20;99.90;;;;;;6226124;28;20045;-76
2021/04/07 15:12:10;;;;;;;9.67;6.40;;;2.20;99.90;;;;;;6233493;28;20069;-76
2021/04/07 15:15:12;;;;;;;10.07;6.77;;;2.20;99.90;;;;;;6233624;28;20492;-76
2021/04/07 15:18:14;;;;;;;6.37;5.70;;;2.20;99.90;;;;;;6230237;28;20050;-76
2021/04/07 15:21:16;;;;;;;10.30;7.67;;;2.20;99.90;;;;;;6226819;28;20128;-76
2021/04/07 15:24:19;;;;;;;11.53;7.17;;;2.20;99.90;;;;;;6237403;28;20124;-76
2021/04/07 15:27:26;;;;;;;12.77;7.90;;;2.20;99.90;;;;;;6232741;28;20054;-76
2021/04/07 15:30:27;;;;;;;8.27;7.13;;;2.30;99.90;;;;;;6238093;28;20064;-77
2021/04/07 15:33:28;;;;;;;12.33;7.50;;;2.40;99.90;;;;;;6228535;28;20072;-77
2021/04/07 15:36:30;;;;;;;7.87;6.17;;;2.40;99.90;;;;;;6245982;28;20107;-77
2021/04/07 15:39:32;;;;;;;8.93;7.27;;;2.50;99.90;;;;;;6245813;28;20121;-76
2021/04/07 15:42:33;;;;;;;9.33;6.67;;;2.60;99.90;;;;;;6239325;28;20081;-76
2021/04/07 15:45:35;;;;;;;13.53;6.07;;;2.70;99.90;;;;;;6228926;28;20132;-76
2021/04/07 15:48:36;;;;;;;9.07;6.60;;;2.70;99.90;;;;;;6229366;28;20537;-77
2021/04/07 15:51:38;;;;;;;7.40;5.50;;;2.70;99.90;;;;;;6220832;28;20049;-76
2021/04/07 15:54:40;;;;;;;9.93;7.13;;;2.70;99.90;;;;;;6245560;28;20132;-77
2021/04/07 15:57:41;;;;;;;7.67;5.20;;;2.70;99.90;;;;;;6213002;28;20511;-76
2021/04/07 16:00:43;;;;;;;8.83;5.97;;;2.80;99.90;;;;;;6245123;28;20077;-76